Time;durP1;ratioP1;P1;durP2;ratioP2;P2;SDS_P1;SDS_P2;PMS_P1;PMS_P2;Temp;Humidity;BMP_temperature;BMP_pressure;BME280_temperature;BME280_humidity;BME280_pressure;Samples;Min_cycle;Max_cycle;Signal;HPM_P1;HPM_P2
2022/02/12 00:00:04;;;;;;;22.02;7.90;;;;;;;;;;5028058;28;20053;-71
2022/02/12 00:02:30;;;;;;;20.88;7.90;;;;;;;;;;5021757;28;20057;-71
2022/02/12 00:04:56;;;;;;;18.60;8.10;;;;;;;;;;5023915;28;20053;-71
2022/02/12 00:07:23;;;;;;;22.98;8.68;;;;;;;;;;5017236;28;20064;-71
2022/02/12 00:09:49;;;;;;;17.50;7.68;;;;;;;;;;5028366;28;20056;-71
2022/02/12 00:12:16;;;;;;;21.38;8.23;;;;;;;;;;5022108;28;20064;-71
2022/02/12 00:14:42;;;;;;;15.43;8.00;;;;;;;;;;5027824;28;20502;-71
2022/02/12 00:17:13;;;;;;;19.75;8.30;;;;;;;;;;5028876;28;20108;-71
2022/02/12 00:19:40;;;;;;;23.40;9.15;;;;;;;;;;5015851;28;20045;-72
2022/02/12 00:22:06;;;;;;;22.20;8.32;;;;;;;;;;5023268;28;20045;-71
2022/02/12 00:24:32;;;;;;;23.40;9.20;;;;;;;;;;5022132;28;20041;-71
2022/02/12 00:26:59;;;;;;;22.48;8.88;;;;;;;;;;5028400;28;20597;-71
2022/02/12 00:29:25;;;;;;;20.58;9.13;;;;;;;;;;5020084;28;20422;-71
2022/02/12 00:31:52;;;;;;;26.48;8.68;;;;;;;;;;5036228;28;20059;-71
2022/02/12 00:34:18;;;;;;;19.23;9.10;;;;;;;;;;5033059;28;20422;-71
2022/02/12 00:36:44;;;;;;;19.83;8.75;;;;;;;;;;5019910;28;20455;-71
2022/02/12 00:39:13;;;;;;;17.88;8.68;;;;;;;;;;5028394;28;20056;-71
2022/02/12 00:41:40;;;;;;;23.88;10.38;;;;;;;;;;5021500;28;20081;-72
2022/02/12 00:44:06;;;;;;;20.00;9.77;;;;;;;;;;5028754;28;20081;-72
2022/02/12 00:46:32;;;;;;;20.67;9.45;;;;;;;;;;5018518;28;20099;-72
2022/02/12 00:48:59;;;;;;;23.10;9.27;;;;;;;;;;5005457;28;20057;-72
2022/02/12 00:51:28;;;;;;;21.60;9.52;;;;;;;;;;5028414;28;20049;-72
2022/02/12 00:53:54;;;;;;;21.50;9.27;;;;;;;;;;5003703;28;20060;-72
2022/02/12 00:56:21;;;;;;;21.15;10.23;;;;;;;;;;5028513;28;20061;-72
2022/02/12 00:58:47;;;;;;;29.98;11.10;;;;;;;;;;5021451;28;20080;-71
2022/02/12 01:01:13;;;;;;;23.55;10.52;;;;;;;;;;5006468;28;20715;-71
2022/02/12 01:03:40;;;;;;;25.65;10.15;;;;;;;;;;5017138;28;20514;-71
2022/02/12 01:06:06;;;;;;;24.88;10.05;;;;;;;;;;5028499;28;20056;-71
2022/02/12 01:08:33;;;;;;;22.52;9.68;;;;;;;;;;5012269;28;20050;-71
2022/02/12 01:10:59;;;;;;;23.65;9.93;;;;;;;;;;5006621;28;20052;-71
2022/02/12 01:13:25;;;;;;;23.15;10.40;;;;;;;;;;5043713;28;20053;-71
2022/02/12 01:15:52;;;;;;;22.50;10.15;;;;;;;;;;5022229;28;20045;-71
2022/02/12 01:18:18;;;;;;;19.80;9.52;;;;;;;;;;5009645;28;20029;-71
2022/02/12 01:20:44;;;;;;;26.85;9.75;;;;;;;;;;5021555;28;20045;-70
2022/02/12 01:23:10;;;;;;;26.40;10.50;;;;;;;;;;5027475;28;20057;-70
2022/02/12 01:25:37;;;;;;;21.27;9.90;;;;;;;;;;5026473;28;20049;-72
2022/02/12 01:28:03;;;;;;;23.55;10.18;;;;;;;;;;4999499;28;20072;-70
2022/02/12 01:30:30;;;;;;;18.85;9.60;;;;;;;;;;5019562;28;20413;-71
2022/02/12 01:32:57;;;;;;;22.73;10.10;;;;;;;;;;5021810;28;20049;-71
2022/02/12 01:35:24;;;;;;;16.83;9.15;;;;;;;;;;5032223;28;20064;-70
2022/02/12 01:37:56;;;;;;;22.35;9.63;;;;;;;;;;5021617;28;20103;-71
2022/02/12 01:40:24;;;;;;;18.55;8.93;;;;;;;;;;5027369;28;20062;-71
2022/02/12 01:42:51;;;;;;;22.75;9.48;;;;;;;;;;5026421;28;20049;-71
2022/02/12 01:45:18;;;;;;;19.45;9.27;;;;;;;;;;5020406;28;20057;-71
2022/02/12 01:47:44;;;;;;;21.98;8.77;;;;;;;;;;5027618;28;20045;-71
2022/02/12 01:50:11;;;;;;;18.83;8.38;;;;;;;;;;5020343;28;20655;-71
2022/02/12 01:52:39;;;;;;;20.75;9.32;;;;;;;;;;5026341;28;20057;-71
2022/02/12 01:55:06;;;;;;;21.20;8.90;;;;;;;;;;4999407;28;20058;-71
2022/02/12 01:57:33;;;;;;;17.30;8.00;;;;;;;;;;5027752;28;20045;-71
2022/02/12 01:59:59;;;;;;;20.73;9.10;;;;;;;;;;5026946;28;20042;-71
2022/02/12 02:02:25;;;;;;;23.90;9.32;;;;;;;;;;5016035;28;20053;-71
2022/02/12 02:04:51;;;;;;;17.95;9.27;;;;;;;;;;5021761;28;20776;-71
2022/02/12 02:07:18;;;;;;;22.50;9.32;;;;;;;;;;5002850;28;20065;-71
2022/02/12 02:09:44;;;;;;;19.73;7.70;;;;;;;;;;5030249;28;20045;-71
2022/02/12 02:12:11;;;;;;;15.98;8.23;;;;;;;;;;5039001;28;20147;-71
2022/02/12 02:14:40;;;;;;;20.58;8.80;;;;;;;;;;5030108;28;20050;-70
2022/02/12 02:17:07;;;;;;;20.98;8.68;;;;;;;;;;5022154;28;20068;-71
2022/02/12 02:19:34;;;;;;;14.93;7.18;;;;;;;;;;5014528;28;20450;-71
2022/02/12 02:22:01;;;;;;;18.98;6.95;;;;;;;;;;5026847;28;20049;-71
2022/02/12 02:24:28;;;;;;;22.98;7.68;;;;;;;;;;5019234;28;20061;-71
2022/02/12 02:27:09;;;;;;;15.23;8.23;;;;;;;;;;5026564;28;20057;-71
2022/02/12 02:29:39;;;;;;;18.60;7.30;;;;;;;;;;5016599;28;20064;-71
2022/02/12 02:32:06;;;;;;;17.55;7.07;;;;;;;;;;5002296;28;20164;-71
2022/02/12 02:34:32;;;;;;;20.40;6.57;;;;;;;;;;5019171;28;20049;-71
2022/02/12 02:36:58;;;;;;;16.67;6.55;;;;;;;;;;5008625;28;20499;-71
2022/02/12 02:39:25;;;;;;;25.17;7.22;;;;;;;;;;5027040;28;20049;-71
2022/02/12 02:41:51;;;;;;;16.60;6.35;;;;;;;;;;5019481;28;20045;-71
2022/02/12 02:44:18;;;;;;;14.85;6.05;;;;;;;;;;5022463;28;20430;-71
2022/02/12 02:46:44;;;;;;;14.27;5.78;;;;;;;;;;4987557;28;20050;-70
2022/02/12 02:49:10;;;;;;;16.85;6.28;;;;;;;;;;5030411;28;20422;-71
2022/02/12 02:57:06;;;;;;;18.73;6.85;;;;;;;;;;5047056;28;20057;-72
2022/02/12 02:59:33;;;;;;;16.15;6.10;;;;;;;;;;5037745;28;20080;-71
2022/02/12 03:01:59;;;;;;;15.45;6.38;;;;;;;;;;5045514;28;20495;-71
2022/02/12 03:04:25;;;;;;;14.15;5.90;;;;;;;;;;5043197;28;20084;-71
2022/02/12 03:06:52;;;;;;;15.18;6.30;;;;;;;;;;5050116;28;20041;-71
2022/02/12 03:09:18;;;;;;;15.68;6.10;;;;;;;;;;5041541;28;20059;-71
2022/02/12 03:11:48;;;;;;;13.20;5.70;;;;;;;;;;5008783;28;20053;-71
2022/02/12 03:14:14;;;;;;;13.88;6.18;;;;;;;;;;5015651;28;20049;-71
2022/02/12 03:16:41;;;;;;;15.95;6.75;;;;;;;;;;5022294;28;20057;-71
2022/02/12 03:19:07;;;;;;;12.25;5.63;;;;;;;;;;5010359;28;20046;-71
2022/02/12 03:21:33;;;;;;;19.45;5.93;;;;;;;;;;5007931;28;20077;-71
2022/02/12 03:24:00;;;;;;;15.90;6.30;;;;;;;;;;5034368;28;20049;-71
2022/02/12 03:26:26;;;;;;;13.98;5.25;;;;;;;;;;5003866;28;20046;-71
2022/02/12 03:28:52;;;;;;;15.43;5.97;;;;;;;;;;5023341;28;20069;-71
2022/02/12 03:31:18;;;;;;;20.52;6.07;;;;;;;;;;5012265;28;20053;-71
2022/02/12 03:33:45;;;;;;;24.17;5.97;;;;;;;;;;5022282;28;20051;-71
2022/02/12 03:36:12;;;;;;;16.48;5.65;;;;;;;;;;5029843;28;20048;-71
2022/02/12 03:38:39;;;;;;;14.57;5.63;;;;;;;;;;5020044;28;20149;-71
2022/02/12 03:41:06;;;;;;;19.17;6.47;;;;;;;;;;5029460;28;20045;-71
2022/02/12 03:43:36;;;;;;;14.27;6.72;;;;;;;;;;5023078;28;20061;-72
2022/02/12 03:46:03;;;;;;;12.18;6.40;;;;;;;;;;5011596;28;20045;-72
2022/02/12 03:48:30;;;;;;;18.95;7.50;;;;;;;;;;5029215;28;20045;-72
2022/02/12 03:50:56;;;;;;;16.83;6.90;;;;;;;;;;5015765;28;20285;-72
2022/02/12 03:53:23;;;;;;;17.10;6.55;;;;;;;;;;5026851;28;20054;-72
2022/02/12 03:55:49;;;;;;;27.30;7.47;;;;;;;;;;5028724;28;20044;-72
2022/02/12 03:58:18;;;;;;;12.93;6.10;;;;;;;;;;5019963;28;20665;-72
2022/02/12 04:00:45;;;;;;;16.80;7.00;;;;;;;;;;5001718;28;20593;-72
2022/02/12 04:03:11;;;;;;;12.50;6.72;;;;;;;;;;5023749;28;20470;-72
2022/02/12 04:05:38;;;;;;;13.20;6.60;;;;;;;;;;5023221;28;20053;-72
2022/02/12 04:08:05;;;;;;;15.80;6.30;;;;;;;;;;5024193;28;20103;-72
2022/02/12 04:10:31;;;;;;;14.80;6.85;;;;;;;;;;5029196;28;20053;-72
2022/02/12 04:12:59;;;;;;;16.77;6.60;;;;;;;;;;5020879;28;20414;-73
2022/02/12 04:15:25;;;;;;;17.90;6.87;;;;;;;;;;5028893;28;20055;-72
2022/02/12 04:17:52;;;;;;;17.52;7.00;;;;;;;;;;4994919;28;20077;-72
2022/02/12 04:20:22;;;;;;;14.95;6.38;;;;;;;;;;5015786;28;20400;-72
2022/02/12 04:22:48;;;;;;;14.23;6.38;;;;;;;;;;5021123;28;20054;-72
2022/02/12 04:25:16;;;;;;;17.70;6.03;;;;;;;;;;5028160;28;20061;-72
2022/02/12 04:27:42;;;;;;;17.15;6.68;;;;;;;;;;5027468;28;20061;-72
2022/02/12 04:30:09;;;;;;;18.02;6.97;;;;;;;;;;5020444;28;20612;-72
2022/02/12 04:32:36;;;;;;;13.55;6.43;;;;;;;;;;5023531;28;20518;-72
2022/02/12 04:35:03;;;;;;;20.95;6.65;;;;;;;;;;5014893;28;20084;-72
2022/02/12 04:37:31;;;;;;;13.40;5.93;;;;;;;;;;5028816;28;20057;-72
2022/02/12 04:39:57;;;;;;;12.40;6.18;;;;;;;;;;5021768;28;20406;-72
2022/02/12 04:42:24;;;;;;;13.07;6.65;;;;;;;;;;5027526;28;20600;-72
2022/02/12 04:44:51;;;;;;;14.35;5.95;;;;;;;;;;5026399;28;20053;-72
2022/02/12 04:47:18;;;;;;;20.88;7.10;;;;;;;;;;5014637;28;20045;-72
2022/02/12 04:49:46;;;;;;;16.92;6.10;;;;;;;;;;5027328;28;20053;-72
2022/02/12 04:52:14;;;;;;;16.08;6.00;;;;;;;;;;5003827;28;20057;-72
2022/02/12 04:54:40;;;;;;;15.48;6.50;;;;;;;;;;5027657;28;20490;-72
2022/02/12 04:57:07;;;;;;;11.50;6.35;;;;;;;;;;5021809;28;20091;-72
2022/02/12 04:59:34;;;;;;;13.85;5.95;;;;;;;;;;5023057;28;20100;-72
2022/02/12 05:02:01;;;;;;;21.15;6.78;;;;;;;;;;5023481;28;20053;-72
2022/02/12 05:04:27;;;;;;;16.38;5.97;;;;;;;;;;5020197;28;20053;-72
2022/02/12 05:06:54;;;;;;;15.27;6.10;;;;;;;;;;5027835;28;20049;-72
2022/02/12 05:09:20;;;;;;;15.40;5.72;;;;;;;;;;5020415;28;20061;-72
2022/02/12 05:11:47;;;;;;;14.80;5.57;;;;;;;;;;5027525;28;20054;-72
2022/02/12 05:14:14;;;;;;;13.93;5.45;;;;;;;;;;5015644;28;20458;-72
2022/02/12 05:16:42;;;;;;;14.57;5.78;;;;;;;;;;5022164;28;20046;-72
2022/02/12 05:19:08;;;;;;;15.10;5.25;;;;;;;;;;5027186;28;20060;-72
2022/02/12 05:21:35;;;;;;;19.50;6.00;;;;;;;;;;5019464;28;20410;-72
2022/02/12 05:24:02;;;;;;;8.48;4.85;;;;;;;;;;5027109;28;20056;-72
2022/02/12 05:26:28;;;;;;;18.80;5.70;;;;;;;;;;5021315;28;20653;-72
2022/02/12 05:28:55;;;;;;;22.33;5.65;;;;;;;;;;5017836;28;20051;-72
2022/02/12 05:31:21;;;;;;;14.43;5.63;;;;;;;;;;5017290;28;20054;-72
2022/02/12 05:33:48;;;;;;;18.08;5.47;;;;;;;;;;5026938;28;20140;-72
2022/02/12 05:36:14;;;;;;;13.30;5.53;;;;;;;;;;5026020;28;20049;-72
2022/02/12 05:38:42;;;;;;;20.90;6.03;;;;;;;;;;5002873;28;20542;-72
2022/02/12 05:41:09;;;;;;;19.13;6.38;;;;;;;;;;5023487;28;20052;-72
2022/02/12 05:43:36;;;;;;;14.80;6.18;;;;;;;;;;5014795;28;20085;-72
2022/02/12 05:46:03;;;;;;;14.82;5.47;;;;;;;;;;5027697;28;20051;-72
2022/02/12 05:48:30;;;;;;;17.75;6.35;;;;;;;;;;5021192;28;20054;-73
2022/02/12 05:50:56;;;;;;;15.75;5.85;;;;;;;;;;5009390;28;20056;-72
2022/02/12 05:53:22;;;;;;;16.42;5.43;;;;;;;;;;5009850;28;20050;-72
2022/02/12 05:55:49;;;;;;;11.38;5.93;;;;;;;;;;5017205;28;20328;-72
2022/02/12 05:58:15;;;;;;;14.07;6.18;;;;;;;;;;5022612;28;20064;-72
2022/02/12 06:00:42;;;;;;;19.63;7.40;;;;;;;;;;5020852;28;20054;-72
2022/02/12 06:03:08;;;;;;;28.60;7.22;;;;;;;;;;5026737;28;20795;-72
2022/02/12 06:05:35;;;;;;;23.27;6.90;;;;;;;;;;5003180;28;20526;-72
2022/02/12 06:08:04;;;;;;;15.57;6.10;;;;;;;;;;5029086;28;20046;-72
2022/02/12 06:10:31;;;;;;;18.05;6.57;;;;;;;;;;5019261;28;20071;-72
2022/02/12 06:12:57;;;;;;;23.38;6.95;;;;;;;;;;5019594;28;20087;-72
2022/02/12 06:15:24;;;;;;;19.88;7.10;;;;;;;;;;5027764;28;20050;-73
2022/02/12 06:17:52;;;;;;;20.15;7.35;;;;;;;;;;5020641;28;20057;-72
2022/02/12 06:20:19;;;;;;;23.08;7.20;;;;;;;;;;5030178;28;20045;-72
2022/02/12 06:22:45;;;;;;;23.48;7.88;;;;;;;;;;5025883;28;20049;-73
2022/02/12 06:25:11;;;;;;;19.40;7.20;;;;;;;;;;5026315;28;20057;-72
2022/02/12 06:27:38;;;;;;;15.82;6.82;;;;;;;;;;5030921;28;20045;-72
2022/02/12 06:30:05;;;;;;;14.55;7.28;;;;;;;;;;5004158;28;20088;-72
2022/02/12 06:32:31;;;;;;;18.00;7.10;;;;;;;;;;5024026;28;20049;-72
2022/02/12 06:35:00;;;;;;;20.05;6.93;;;;;;;;;;5022710;28;20045;-72
2022/02/12 06:37:28;;;;;;;11.00;6.03;;;;;;;;;;5025741;28;20049;-72
2022/02/12 06:39:54;;;;;;;23.40;7.00;;;;;;;;;;5018590;28;20517;-72
2022/02/12 06:42:21;;;;;;;20.35;7.55;;;;;;;;;;5013085;28;20479;-72
2022/02/12 06:44:47;;;;;;;19.33;8.18;;;;;;;;;;5012833;28;20050;-73
2022/02/12 06:47:13;;;;;;;21.45;8.00;;;;;;;;;;5024096;28;20690;-73
2022/02/12 06:49:40;;;;;;;25.63;7.32;;;;;;;;;;5028789;28;20589;-73
2022/02/12 06:52:07;;;;;;;19.48;7.05;;;;;;;;;;5015746;28;20041;-72
2022/02/12 06:54:33;;;;;;;14.57;6.72;;;;;;;;;;5027793;28;20079;-72
2022/02/12 06:57:00;;;;;;;17.08;6.97;;;;;;;;;;5023126;28;20413;-72
2022/02/12 06:59:26;;;;;;;17.10;7.43;;;;;;;;;;5012443;28;20053;-73
2022/02/12 07:01:52;;;;;;;24.20;7.25;;;;;;;;;;5018798;28;20509;-73
2022/02/12 07:04:19;;;;;;;20.10;7.75;;;;;;;;;;5005701;28;20046;-72
2022/02/12 07:06:45;;;;;;;17.77;6.60;;;;;;;;;;5002295;28;20058;-73
2022/02/12 07:09:11;;;;;;;20.55;7.82;;;;;;;;;;5001887;28;20491;-73
2022/02/12 07:11:40;;;;;;;19.38;7.20;;;;;;;;;;5021428;28;20054;-73
2022/02/12 07:14:06;;;;;;;16.48;6.65;;;;;;;;;;5022978;28;20060;-73
2022/02/12 07:16:33;;;;;;;22.02;7.90;;;;;;;;;;5012484;28;20053;-73
2022/02/12 07:18:59;;;;;;;24.23;7.55;;;;;;;;;;5024515;28;20076;-73
2022/02/12 07:21:26;;;;;;;19.00;7.32;;;;;;;;;;5002319;28;20045;-73
2022/02/12 07:23:52;;;;;;;19.08;6.68;;;;;;;;;;5028208;28;20042;-74
2022/02/12 07:26:19;;;;;;;17.05;7.13;;;;;;;;;;5022879;28;20426;-74
2022/02/12 07:28:45;;;;;;;18.98;7.13;;;;;;;;;;5027081;28;20291;-73
2022/02/12 07:31:12;;;;;;;15.98;7.28;;;;;;;;;;4999615;28;20077;-73
2022/02/12 07:33:38;;;;;;;18.13;7.03;;;;;;;;;;5024626;28;20064;-74
2022/02/12 07:36:07;;;;;;;18.98;6.85;;;;;;;;;;5028984;28;20053;-73
2022/02/12 07:38:33;;;;;;;;;;;;;;;;;;5023142;28;20060;-74
2022/02/12 07:41:00;;;;;;;17.42;6.38;;;;;;;;;;5008506;28;19935;-72
2022/02/12 07:43:27;;;;;;;16.98;7.32;;;;;;;;;;5011782;28;20566;-72
2022/02/12 07:45:54;;;;;;;25.77;7.18;;;;;;;;;;5023252;28;20050;-72
2022/02/12 07:48:21;;;;;;;19.90;7.07;;;;;;;;;;5014951;28;20079;-72
2022/02/12 07:50:47;;;;;;;16.13;6.50;;;;;;;;;;5027179;28;20049;-72
2022/02/12 07:53:14;;;;;;;21.38;8.00;;;;;;;;;;5028746;28;20050;-73
2022/02/12 07:55:41;;;;;;;18.15;6.68;;;;;;;;;;5027394;28;20049;-72
2022/02/12 07:58:08;;;;;;;22.73;7.07;;;;;;;;;;5041515;28;20053;-73
2022/02/12 08:00:35;;;;;;;18.27;6.63;;;;;;;;;;5015147;28;20056;-72
2022/02/12 08:03:02;;;;;;;15.05;6.57;;;;;;;;;;5028664;28;20052;-72
2022/02/12 08:05:28;;;;;;;17.05;6.60;;;;;;;;;;5021672;28;20045;-73
2022/02/12 08:07:54;;;;;;;18.65;6.35;;;;;;;;;;5028149;28;20049;-73
2022/02/12 08:13:06;;;;;;;20.52;6.40;;;;;;;;;;5022568;28;20045;-72
2022/02/12 08:15:35;;;;;;;18.23;5.82;;;;;;;;;;5028861;28;20053;-72
2022/02/12 08:18:01;;;;;;;18.17;6.50;;;;;;;;;;5021434;28;20045;-73
2022/02/12 08:20:28;;;;;;;11.60;5.45;;;;;;;;;;5010870;28;20061;-72
2022/02/12 08:22:54;;;;;;;18.20;6.50;;;;;;;;;;5011088;28;20050;-74
2022/02/12 08:25:20;;;;;;;15.73;5.90;;;;;;;;;;5028458;28;20081;-74
2022/02/12 08:27:47;;;;;;;16.73;6.25;;;;;;;;;;5003362;28;20054;-73
2022/02/12 08:30:14;;;;;;;13.68;5.45;;;;;;;;;;5008697;28;20045;-74
2022/02/12 08:32:41;;;;;;;17.23;5.72;;;;;;;;;;5028586;28;20144;-74
2022/02/12 08:35:10;;;;;;;16.17;5.90;;;;;;;;;;5015330;28;20049;-73
2022/02/12 08:37:39;;;;;;;;;;;;;;;;;;5006082;28;20064;-73
2022/02/12 08:40:06;;;;;;;14.70;5.50;;;;;;;;;;5021588;28;20310;-73
2022/02/12 08:42:34;;;;;;;18.20;6.07;;;;;;;;;;5026629;28;20618;-74
2022/02/12 08:45:00;;;;;;;14.57;5.38;;;;;;;;;;5022125;28;20528;-73
2022/02/12 08:47:27;;;;;;;17.85;5.80;;;;;;;;;;5026834;28;20403;-73
2022/02/12 08:49:53;;;;;;;21.38;5.80;;;;;;;;;;5019969;28;20041;-73
2022/02/12 08:52:19;;;;;;;16.77;6.25;;;;;;;;;;5003673;28;20514;-73
2022/02/12 08:54:46;;;;;;;14.77;6.35;;;;;;;;;;5009950;28;20061;-73
2022/02/12 08:57:12;;;;;;;20.73;5.75;;;;;;;;;;5020135;28;20542;-73
2022/02/12 08:59:39;;;;;;;22.63;5.78;;;;;;;;;;5027741;28;20045;-73
2022/02/12 09:02:11;;;;;;;25.08;6.10;;;;;;;;;;5018035;28;20447;-73
2022/02/12 09:04:37;;;;;;;23.20;5.82;;;;;;;;;;5022297;28;20060;-74
2022/02/12 09:07:04;;;;;;;14.23;4.95;;;;;;;;;;5027422;28;20057;-74
2022/02/12 09:09:30;;;;;;;18.85;5.20;;;;;;;;;;5003253;28;20057;-73
2022/02/12 09:11:57;;;;;;;22.20;5.80;;;;;;;;;;5026920;28;20060;-73
2022/02/12 09:14:24;;;;;;;11.20;5.00;;;;;;;;;;5020544;28;20063;-73
2022/02/12 09:16:50;;;;;;;12.70;5.35;;;;;;;;;;5003309;28;20502;-73
2022/02/12 09:19:17;;;;;;;15.10;5.28;;;;;;;;;;5003912;28;20612;-73
2022/02/12 09:21:44;;;;;;;21.27;6.07;;;;;;;;;;4994391;28;20516;-73
2022/02/12 09:24:10;;;;;;;21.05;5.05;;;;;;;;;;5009078;28;20073;-73
2022/02/12 09:26:38;;;;;;;13.63;4.78;;;;;;;;;;4999707;28;20042;-74
2022/02/12 09:29:09;;;;;;;10.35;4.35;;;;;;;;;;5014571;28;20092;-73
2022/02/12 09:31:36;;;;;;;14.93;4.57;;;;;;;;;;5013738;28;20426;-73
2022/02/12 09:34:02;;;;;;;17.23;4.85;;;;;;;;;;5024203;28;20065;-72
2022/02/12 09:36:29;;;;;;;15.68;4.72;;;;;;;;;;5020184;28;20059;-73
2022/02/12 09:38:55;;;;;;;14.60;4.35;;;;;;;;;;5026375;28;20516;-73
2022/02/12 09:41:23;;;;;;;18.60;5.20;;;;;;;;;;5026483;28;20064;-72
2022/02/12 09:43:53;;;;;;;9.05;4.00;;;;;;;;;;5015840;28;20747;-72
2022/02/12 09:46:19;;;;;;;12.45;4.30;;;;;;;;;;5004298;28;20065;-71
2022/02/12 09:48:47;;;;;;;18.55;4.13;;;;;;;;;;5019400;28;20572;-71
2022/02/12 09:51:13;;;;;;;15.40;4.25;;;;;;;;;;5009329;28;20045;-72
2022/02/12 09:53:39;;;;;;;10.68;4.18;;;;;;;;;;5019587;28;20038;-72
2022/02/12 09:56:06;;;;;;;16.58;4.05;;;;;;;;;;5031070;28;20376;-73
2022/02/12 09:58:32;;;;;;;8.98;3.53;;;;;;;;;;5007921;28;20504;-73
2022/02/12 10:00:59;;;;;;;11.63;3.80;;;;;;;;;;5000505;28;20049;-73
2022/02/12 10:03:25;;;;;;;12.82;3.92;;;;;;;;;;5010674;28;20085;-73
2022/02/12 10:05:53;;;;;;;12.95;4.18;;;;;;;;;;5001434;28;20066;-73
2022/02/12 10:08:21;;;;;;;13.30;4.13;;;;;;;;;;5010316;28;20139;-73
2022/02/12 10:10:49;;;;;;;11.05;3.72;;;;;;;;;;5004110;28;20042;-73
2022/02/12 10:13:19;;;;;;;12.43;3.42;;;;;;;;;;5013525;28;20046;-73
2022/02/12 10:15:46;;;;;;;11.63;3.58;;;;;;;;;;5003712;28;20042;-73
2022/02/12 10:18:13;;;;;;;10.70;3.33;;;;;;;;;;5016329;28;20055;-73
2022/02/12 10:20:43;;;;;;;12.60;3.58;;;;;;;;;;5017477;28;20050;-72
2022/02/12 10:23:09;;;;;;;10.35;3.17;;;;;;;;;;5004962;28;20622;-72
2022/02/12 10:25:36;;;;;;;15.90;3.70;;;;;;;;;;5002606;28;20475;-73
2022/02/12 10:28:03;;;;;;;10.73;3.10;;;;;;;;;;4999471;28;20586;-73
2022/02/12 10:30:30;;;;;;;9.23;3.70;;;;;;;;;;5011251;28;20041;-73
2022/02/12 10:33:00;;;;;;;10.35;3.55;;;;;;;;;;5015732;28;20401;-73
2022/02/12 10:35:27;;;;;;;10.38;3.20;;;;;;;;;;5019607;28;20046;-73
2022/02/12 10:37:59;;;;;;;14.90;3.72;;;;;;;;;;5006466;28;20042;-73
2022/02/12 10:40:27;;;;;;;10.73;3.88;;;;;;;;;;4995444;28;20054;-73
2022/02/12 10:42:53;;;;;;;13.43;3.53;;;;;;;;;;5003604;28;20056;-72
2022/02/12 10:45:20;;;;;;;9.13;3.53;;;;;;;;;;5006630;28;20049;-73
2022/02/12 10:47:48;;;;;;;13.15;3.38;;;;;;;;;;5010047;28;20057;-73
2022/02/12 10:50:15;;;;;;;11.57;3.47;;;;;;;;;;5004185;28;20050;-73
2022/02/12 10:52:42;;;;;;;16.77;3.67;;;;;;;;;;4998095;28;20068;-73
2022/02/12 10:55:21;;;;;;;9.30;3.47;;;;;;;;;;5007759;28;20054;-73
2022/02/12 10:57:47;;;;;;;12.55;3.83;;;;;;;;;;4993989;28;20100;-73
2022/02/12 11:00:15;;;;;;;13.93;3.30;;;;;;;;;;5021611;28;20057;-73
2022/02/12 11:02:43;;;;;;;13.95;3.63;;;;;;;;;;5012739;28;20092;-73
2022/02/12 11:05:09;;;;;;;11.80;3.25;;;;;;;;;;5019725;28;20045;-72
2022/02/12 11:07:36;;;;;;;10.73;3.30;;;;;;;;;;5014004;28;20064;-72
2022/02/12 11:10:05;;;;;;;15.68;4.18;;;;;;;;;;5012639;28;20501;-72
2022/02/12 11:12:31;;;;;;;7.70;3.50;;;;;;;;;;5011425;28;20189;-71
2022/02/12 11:14:58;;;;;;;11.00;3.10;;;;;;;;;;5013398;28;20517;-72
2022/02/12 11:17:30;;;;;;;13.68;2.92;;;;;;;;;;5006500;28;20057;-72
2022/02/12 11:20:02;;;;;;;11.25;3.30;;;;;;;;;;5016057;28;20521;-72
2022/02/12 11:22:30;;;;;;;17.92;3.65;;;;;;;;;;5003992;28;20053;-72
2022/02/12 11:24:57;;;;;;;9.98;2.85;;;;;;;;;;5010192;28;20079;-70
2022/02/12 11:27:29;;;;;;;13.85;3.30;;;;;;;;;;5005512;28;20053;-72
2022/02/12 11:30:14;;;;;;;8.52;2.97;;;;;;;;;;5021773;28;20347;-72
2022/02/12 11:32:41;;;;;;;11.05;2.80;;;;;;;;;;5016044;28;20046;-72
2022/02/12 11:35:10;;;;;;;11.75;2.70;;;;;;;;;;5023092;28;20065;-72
2022/02/12 11:37:38;;;;;;;8.88;2.83;;;;;;;;;;5002248;28;20262;-71
2022/02/12 11:40:13;;;;;;;7.10;2.83;;;;;;;;;;5003519;28;20065;-71
2022/02/12 11:42:40;;;;;;;6.45;2.58;;;;;;;;;;5007468;28;20149;-71
2022/02/12 11:45:25;;;;;;;9.30;3.38;;;;;;;;;;5005179;28;20056;-70
2022/02/12 11:48:10;;;;;;;11.00;2.53;;;;;;;;;;5010267;28;20433;-71
2022/02/12 11:50:41;;;;;;;8.35;2.70;;;;;;;;;;5017615;28;20056;-71
2022/02/12 11:53:34;;;;;;;10.40;2.60;;;;;;;;;;5012747;28;20056;-72
2022/02/12 11:56:04;;;;;;;9.02;2.67;;;;;;;;;;5014614;28;20080;-71
2022/02/12 11:58:43;;;;;;;12.38;2.70;;;;;;;;;;5019186;28;20045;-72
2022/02/12 12:01:38;;;;;;;11.20;3.58;;;;;;;;;;5015298;28;20080;-72
2022/02/12 12:04:04;;;;;;;13.15;2.88;;;;;;;;;;5001896;28;20072;-71
2022/02/12 12:06:31;;;;;;;9.68;2.65;;;;;;;;;;4998520;28;20057;-71
2022/02/12 12:09:07;;;;;;;11.18;2.75;;;;;;;;;;5019232;28;20065;-72
2022/02/12 12:11:34;;;;;;;12.10;3.40;;;;;;;;;;5014323;28;20065;-70
2022/02/12 12:14:23;;;;;;;10.00;2.83;;;;;;;;;;5005631;28;20045;-71
2022/02/12 12:16:58;;;;;;;15.40;3.45;;;;;;;;;;5015327;28;20057;-71
2022/02/12 12:19:25;;;;;;;8.30;2.47;;;;;;;;;;5013775;28;20100;-70
2022/02/12 12:21:54;;;;;;;6.38;2.42;;;;;;;;;;5000276;28;20549;-71
2022/02/12 12:24:20;;;;;;;11.10;2.78;;;;;;;;;;5022582;28;20061;-70
2022/02/12 12:26:48;;;;;;;7.38;2.67;;;;;;;;;;5022560;28;20067;-70
2022/02/12 12:32:01;;;;;;;12.10;3.00;;;;;;;;;;5018300;28;20042;-70
2022/02/12 12:34:28;;;;;;;13.25;2.97;;;;;;;;;;5010596;28;20049;-70
2022/02/12 12:36:56;;;;;;;11.63;2.80;;;;;;;;;;5021929;28;20052;-71
2022/02/12 12:39:30;;;;;;;13.70;2.80;;;;;;;;;;5015799;28;20057;-71
2022/02/12 12:41:57;;;;;;;11.10;2.90;;;;;;;;;;5017919;28;20422;-70
2022/02/12 12:44:23;;;;;;;7.63;2.45;;;;;;;;;;5022316;28;20060;-70
2022/02/12 12:46:51;;;;;;;8.88;2.40;;;;;;;;;;5022329;28;20095;-70
2022/02/12 12:49:24;;;;;;;8.00;2.47;;;;;;;;;;5038060;28;20461;-70
2022/02/12 12:51:50;;;;;;;10.90;2.30;;;;;;;;;;5034598;28;20053;-70
2022/02/12 12:54:25;;;;;;;13.45;3.00;;;;;;;;;;5023180;28;20419;-70
2022/02/12 12:56:52;;;;;;;9.02;2.60;;;;;;;;;;5015133;28;20057;-70
2022/02/12 12:59:18;;;;;;;9.18;2.65;;;;;;;;;;5020689;28;20366;-70
2022/02/12 13:01:58;;;;;;;10.00;2.70;;;;;;;;;;4997978;28;20490;-70
2022/02/12 13:04:25;;;;;;;14.38;2.75;;;;;;;;;;5021974;28;20053;-70
2022/02/12 13:06:52;;;;;;;10.10;2.67;;;;;;;;;;5014863;28;20049;-69
2022/02/12 13:09:18;;;;;;;8.80;2.53;;;;;;;;;;5013220;28;20448;-70
2022/02/12 13:11:45;;;;;;;11.80;3.10;;;;;;;;;;5021465;28;20048;-70
2022/02/12 13:14:11;;;;;;;9.55;2.53;;;;;;;;;;5009837;28;20057;-70
2022/02/12 13:16:42;;;;;;;10.27;2.78;;;;;;;;;;5010704;28;20527;-70
2022/02/12 13:19:15;;;;;;;8.40;2.40;;;;;;;;;;5012736;28;20060;-70
2022/02/12 13:21:45;;;;;;;8.25;2.08;;;;;;;;;;5019509;28;20148;-70
2022/02/12 13:24:11;;;;;;;5.88;2.30;;;;;;;;;;5020760;28;20049;-70
2022/02/12 13:26:38;;;;;;;12.48;2.05;;;;;;;;;;5010271;28;20049;-70
2022/02/12 13:29:17;;;;;;;9.93;2.63;;;;;;;;;;5012217;28;20053;-70
2022/02/12 13:31:47;;;;;;;8.95;2.25;;;;;;;;;;5013361;28;20080;-70
2022/02/12 13:34:15;;;;;;;5.75;2.45;;;;;;;;;;5021955;28;20061;-70
2022/02/12 13:36:42;;;;;;;8.23;2.60;;;;;;;;;;5014329;28;20049;-70
2022/02/12 13:39:08;;;;;;;9.13;2.80;;;;;;;;;;5005305;28;20050;-70
2022/02/12 13:41:39;;;;;;;8.73;2.88;;;;;;;;;;5000694;28;20564;-70
2022/02/12 13:44:05;;;;;;;8.25;2.60;;;;;;;;;;5010744;28;20057;-70
2022/02/12 13:46:35;;;;;;;8.68;3.03;;;;;;;;;;5020713;28;20324;-71
2022/02/12 13:49:18;;;;;;;8.85;3.20;;;;;;;;;;4996227;28;20057;-70
2022/02/12 13:51:55;;;;;;;11.50;3.33;;;;;;;;;;5003095;28;20499;-70
2022/02/12 13:54:22;;;;;;;11.27;3.38;;;;;;;;;;4987165;28;20064;-70
2022/02/12 13:56:51;;;;;;;9.67;3.23;;;;;;;;;;5020953;28;20083;-70
2022/02/12 13:59:18;;;;;;;10.35;2.90;;;;;;;;;;5014160;28;20045;-70
2022/02/12 14:01:45;;;;;;;11.60;3.80;;;;;;;;;;5002623;28;20065;-70
2022/02/12 14:04:12;;;;;;;8.63;3.50;;;;;;;;;;5021722;28;20061;-70
2022/02/12 14:06:38;;;;;;;8.55;3.10;;;;;;;;;;4995764;28;20042;-70
2022/02/12 14:09:04;;;;;;;13.13;3.25;;;;;;;;;;5035070;28;20071;-70
2022/02/12 14:11:31;;;;;;;13.18;4.63;;;;;;;;;;5007930;28;20050;-71
2022/02/12 14:13:57;;;;;;;9.93;3.58;;;;;;;;;;5021838;28;20060;-71
2022/02/12 14:16:23;;;;;;;9.07;3.03;;;;;;;;;;5004380;28;20057;-70
2022/02/12 14:18:50;;;;;;;7.85;3.10;;;;;;;;;;5018120;28;20747;-70
2022/02/12 14:21:17;;;;;;;9.40;3.30;;;;;;;;;;5021909;28;20053;-70
2022/02/12 14:23:43;;;;;;;12.02;3.38;;;;;;;;;;5010857;28;20781;-70
2022/02/12 14:26:09;;;;;;;11.35;3.13;;;;;;;;;;4997260;28;20064;-70
2022/02/12 14:28:35;;;;;;;9.85;2.92;;;;;;;;;;5009038;28;20061;-70
2022/02/12 14:31:02;;;;;;;10.07;3.08;;;;;;;;;;5021756;28;20053;-70
2022/02/12 14:33:32;;;;;;;8.35;2.88;;;;;;;;;;5021767;28;20492;-70
2022/02/12 14:36:00;;;;;;;9.75;2.83;;;;;;;;;;5012173;28;20051;-70
2022/02/12 14:38:28;;;;;;;7.53;2.92;;;;;;;;;;5015357;28;20442;-70
2022/02/12 14:40:59;;;;;;;9.00;3.13;;;;;;;;;;5013206;28;20080;-70
2022/02/12 14:43:25;;;;;;;8.80;3.25;;;;;;;;;;5007230;28;20712;-70